Time;durP1;ratioP1;P1;durP2;ratioP2;P2;SDS_P1;SDS_P2;PMS_P1;PMS_P2;Temp;Humidity;BMP_temperature;BMP_pressure;BME280_temperature;BME280_humidity;BME280_pressure;Samples;Min_cycle;Max_cycle;Signal;HPM_P1;HPM_P2
2022/02/09 00:02:41;;;;;;;3.70;2.63;;;;;;;-0.38;53.18;94526.72;5021256;28;20147;-74
2022/02/09 00:10:07;;;;;;;3.85;2.67;;;;;;;-0.44;53.35;94532.88;5019203;28;20045;-74
2022/02/09 00:12:46;;;;;;;3.75;2.50;;;;;;;-0.63;53.90;94518.31;5020397;28;20397;-74
2022/02/09 00:44:14;;;;;;;3.35;2.80;;;;;;;-0.44;54.06;94543.31;5012033;28;20332;-74
2022/02/09 01:38:44;;;;;;;3.28;2.65;;;;;;;-0.28;53.82;94558.31;5025373;28;21038;-75
2022/02/09 01:57:24;;;;;;;3.97;2.28;;;;;;;-0.13;53.21;94550.81;5024953;28;20407;-73
2022/02/09 01:59:49;;;;;;;3.58;2.63;;;;;;;-0.36;53.45;94522.06;5032079;28;20040;-74
2022/02/09 02:02:15;;;;;;;7.50;2.95;;;;;;;-0.02;53.34;94557.06;5023647;28;20033;-74
2022/02/09 02:04:40;;;;;;;3.65;2.70;;;;;;;0.01;53.54;94556.59;5022672;28;20037;-74
2022/02/09 02:07:16;;;;;;;4.10;3.13;;;;;;;0.04;53.75;94556.16;5022171;28;20437;-74
2022/02/09 02:09:42;;;;;;;5.43;2.70;;;;;;;0.23;53.28;94564.66;5016502;28;20068;-73
2022/02/09 02:12:16;;;;;;;10.85;3.05;;;;;;;0.22;53.30;94563.84;5028358;28;20387;-74
2022/02/09 02:14:47;;;;;;;4.18;3.25;;;;;;;-0.46;53.18;94480.03;5019291;28;20040;-74
2022/02/09 02:17:28;;;;;;;5.38;3.05;;;;;;;0.23;53.46;94585.56;5020368;28;20467;-73
2022/02/09 02:19:59;;;;;;;3.67;3.10;;;;;;;0.26;53.68;94569.41;5010019;28;20596;-73
2022/02/09 02:22:50;;;;;;;7.60;3.45;;;;;;;0.27;53.36;94571.00;5026138;28;20128;-74
2022/02/09 02:26:24;;;;;;;3.90;3.05;;;;;;;0.46;52.87;94584.72;5016188;28;20045;-73
2022/02/09 03:13:05;;;;;;;4.88;3.03;;;;;;;0.52;54.72;94626.50;5024746;28;20127;-74
2022/02/09 03:20:44;;;;;;;5.40;3.40;;;;;;;0.28;55.17;94619.69;5019445;28;20047;-73
2022/02/09 03:23:39;;;;;;;9.85;3.65;;;;;;;0.23;55.34;94619.59;5026642;28;20021;-72
2022/02/09 03:45:15;;;;;;;8.07;3.20;;;;;;;0.09;55.38;94522.25;5021897;28;20336;-77
2022/02/09 03:57:45;;;;;;;2.72;2.53;;;;;;;0.51;56.40;94596.09;5025495;28;20041;-75
2022/02/09 04:00:18;;;;;;;4.38;2.75;;;;;;;0.22;56.49;94563.06;5023048;28;20289;-74
2022/02/09 04:02:50;;;;;;;5.05;3.50;;;;;;;0.12;56.44;94539.28;5021302;28;20052;-76
2022/02/09 04:05:17;;;;;;;5.05;3.92;;;;;;;0.50;56.66;94591.88;5031841;28;20124;-74
2022/02/09 04:07:43;;;;;;;6.97;4.43;;;;;;;0.49;56.69;94587.69;5022526;28;20036;-74
2022/02/09 04:10:13;;;;;;;8.73;4.78;;;;;;;0.34;56.81;94575.09;5025614;28;20445;-74
2022/02/09 04:12:48;;;;;;;6.47;3.78;;;;;;;0.44;57.11;94586.81;5026678;28;20627;-74
2022/02/09 04:15:28;;;;;;;6.97;4.10;;;;;;;0.42;57.40;94594.88;5021997;28;20599;-74
2022/02/09 04:36:58;;;;;;;4.63;3.00;;;;;;;0.60;58.57;94602.56;5022727;28;20175;-74
2022/02/09 04:54:48;;;;;;;4.13;3.72;;;;;;;0.97;58.42;94586.50;5021196;28;20049;-74
2022/02/09 04:57:38;;;;;;;4.00;3.58;;;;;;;1.14;58.08;94582.91;5025880;28;20033;-75
2022/02/09 05:27:34;;;;;;;5.18;4.18;;;;;;;1.70;57.19;94585.66;5018864;28;20567;-74
2022/02/09 05:29:28;;;;;;;5.50;3.88;;;;;;;1.40;57.12;94560.53;5017871;28;20527;-73
2022/02/09 05:31:53;;;;;;;3.88;3.35;;;;;;;1.33;57.87;94578.22;5024061;28;20025;-74
2022/02/09 05:34:19;;;;;;;4.57;3.05;;;;;;;1.51;57.95;94601.63;5021521;28;20652;-76
2022/02/09 05:36:44;;;;;;;4.55;3.28;;;;;;;1.41;57.75;94579.69;5037839;28;20048;-75
2022/02/09 05:39:10;;;;;;;2.90;2.45;;;;;;;1.28;58.05;94572.91;5025243;28;20745;-74
2022/02/09 05:41:42;;;;;;;4.10;2.80;;;;;;;1.42;58.28;94594.38;5018215;28;20450;-74
2022/02/09 05:44:09;;;;;;;3.15;2.58;;;;;;;1.57;57.97;94592.78;5015835;28;20086;-75
2022/02/09 05:52:14;;;;;;;2.58;2.03;;;;;;;1.47;58.52;94602.34;5015050;28;20503;-74
2022/02/09 05:59:45;;;;;;;4.40;2.85;;;;;;;1.80;58.09;94622.53;5016008;28;20107;-74
2022/02/09 06:02:11;;;;;;;5.07;2.42;;;;;;;1.92;57.66;94618.00;5021728;28;20037;-74
2022/02/09 06:04:38;;;;;;;3.08;2.25;;;;;;;1.82;57.76;94621.25;5020870;28;20072;-74
2022/02/09 06:07:04;;;;;;;2.63;1.98;;;;;;;1.84;57.91;94631.50;5018820;28;20041;-75
2022/02/09 06:09:30;;;;;;;3.92;2.92;;;;;;;1.85;58.33;94640.97;5026123;28;20044;-75
2022/02/09 06:20:17;;;;;;;3.30;2.63;;;;;;;1.66;58.18;94622.84;5026688;28;20044;-74
2022/02/09 06:22:43;;;;;;;2.50;2.20;;;;;;;1.95;58.02;94651.66;5012127;28;20032;-74
2022/02/09 06:25:08;;;;;;;3.58;2.42;;;;;;;1.98;58.09;94651.97;5024359;28;20041;-75
2022/02/09 06:27:34;;;;;;;4.88;2.90;;;;;;;1.90;58.29;94655.00;5022967;28;20041;-74
2022/02/09 06:29:59;;;;;;;3.78;3.03;;;;;;;1.60;59.05;94663.13;5023934;28;20607;-74
2022/02/09 06:32:27;;;;;;;4.78;2.50;;;;;;;1.56;59.85;94677.75;5019126;28;20041;-76
2022/02/09 06:34:52;;;;;;;2.63;2.42;;;;;;;1.54;59.70;94660.66;5026236;28;20017;-74
2022/02/09 06:37:25;;;;;;;2.63;2.45;;;;;;;1.58;60.11;94680.91;5014718;28;20513;-76
2022/02/09 06:39:59;;;;;;;3.83;2.55;;;;;;;1.55;60.22;94681.41;5018526;28;20441;-74
2022/02/09 06:42:25;;;;;;;4.35;2.72;;;;;;;1.31;60.65;94656.31;5008762;28;20425;-73
2022/02/09 06:44:52;;;;;;;2.75;2.55;;;;;;;1.47;60.85;94673.88;5015457;28;20333;-76
2022/02/09 06:47:23;;;;;;;3.47;2.40;;;;;;;1.43;61.33;94672.78;5021561;28;20029;-77
2022/02/09 06:49:56;;;;;;;16.58;14.07;;;;;;;1.57;61.30;94691.66;5011905;28;20078;-75
2022/02/09 06:52:22;;;;;;;5.00;3.00;;;;;;;1.55;61.23;94694.50;5025296;28;20037;-77
2022/02/09 06:55:07;;;;;;;4.68;3.85;;;;;;;1.49;61.11;94674.47;5018996;28;20418;-74
2022/02/09 06:57:46;;;;;;;9.90;4.75;;;;;;;1.47;61.95;94697.47;5017301;28;20037;-74
2022/02/09 07:00:13;;;;;;;5.30;3.55;;;;;;;1.52;62.12;94704.66;5019681;28;20066;-74
2022/02/09 07:02:41;;;;;;;3.20;2.85;;;;;;;1.50;62.02;94699.66;5028062;28;20044;-75
2022/02/09 07:05:10;;;;;;;10.27;5.30;;;;;;;1.56;62.17;94700.53;5019421;28;20065;-73
2022/02/09 07:07:36;;;;;;;9.95;5.25;;;;;;;1.52;62.25;94694.94;5024219;28;20496;-73
2022/02/09 07:10:03;;;;;;;7.93;4.15;;;;;;;1.54;62.65;94698.16;5019718;28;20047;-75
2022/02/09 07:12:29;;;;;;;4.28;3.72;;;;;;;1.49;63.12;94700.69;5021883;28;20041;-74
2022/02/09 07:14:54;;;;;;;7.18;3.15;;;;;;;1.33;63.32;94661.31;5019320;28;20102;-74
2022/02/09 07:17:20;;;;;;;9.35;3.50;;;;;;;1.45;63.85;94688.28;5024441;28;20033;-75
2022/02/09 07:19:55;;;;;;;4.15;3.05;;;;;;;1.51;64.32;94692.59;5022769;28;20573;-73
2022/02/09 07:22:26;;;;;;;5.38;4.22;;;;;;;1.37;64.16;94662.44;5016974;28;20269;-75
2022/02/09 07:25:03;;;;;;;6.05;4.05;;;;;;;1.61;63.58;94688.31;5023833;28;20167;-76
2022/02/09 07:27:40;;;;;;;3.38;3.13;;;;;;;1.63;63.21;94696.72;5022240;28;20371;-74
2022/02/09 07:30:07;;;;;;;7.30;3.90;;;;;;;1.55;63.25;94685.84;5012430;28;20506;-75
2022/02/09 07:32:33;;;;;;;3.95;2.92;;;;;;;1.34;63.47;94665.53;5023308;28;20044;-74
2022/02/09 07:34:59;;;;;;;5.95;2.85;;;;;;;1.41;62.85;94697.66;5018037;28;20033;-75
2022/02/09 07:37:24;;;;;;;4.95;3.17;;;;;;;1.36;62.67;94676.56;5025286;28;20036;-75
2022/02/09 07:39:49;;;;;;;6.10;3.38;;;;;;;1.40;62.00;94696.84;5015306;28;20045;-74
2022/02/09 07:42:22;;;;;;;4.38;3.20;;;;;;;1.49;62.28;94690.19;5029061;28;20995;-75
2022/02/09 07:45:44;;;;;;;5.75;3.10;;;;;;;1.46;61.50;94685.44;5009978;28;20045;-75
2022/02/09 07:52:52;;;;;;;6.00;2.63;;;;;;;1.63;60.96;94693.31;5018884;28;20043;-75
2022/02/09 07:55:17;;;;;;;4.95;2.38;;;;;;;1.63;60.69;94696.72;5020534;28;20236;-77
2022/02/09 07:57:43;;;;;;;2.92;2.10;;;;;;;1.57;60.54;94675.91;5021140;28;20044;-73
2022/02/09 08:00:10;;;;;;;2.80;2.42;;;;;;;1.70;60.30;94708.91;5016938;28;20464;-76
2022/02/09 08:02:36;;;;;;;3.25;2.78;;;;;;;1.76;60.19;94697.47;5021742;28;20479;-77
2022/02/09 08:05:01;;;;;;;6.45;4.22;;;;;;;1.80;60.05;94685.47;5035291;28;20592;-77
2022/02/09 08:07:27;;;;;;;6.75;3.72;;;;;;;2.14;59.58;94702.88;5013467;28;20208;-76
2022/02/09 08:09:56;;;;;;;4.07;2.47;;;;;;;2.22;59.16;94710.34;5019195;28;20121;-77
2022/02/09 08:28:34;;;;;;;3.10;2.80;;;;;;;2.31;58.32;94685.28;5017072;28;20045;-76
2022/02/09 08:31:22;;;;;;;7.85;3.50;;;;;;;1.99;57.88;94592.41;5021445;28;20033;-77
2022/02/09 08:33:46;;;;;;;2.22;2.00;;;;;;;2.73;57.51;94690.06;5019093;28;20489;-76
2022/02/09 08:36:12;;;;;;;5.20;2.72;;;;;;;2.63;57.56;94687.31;5021144;28;20036;-75
2022/02/09 08:38:39;;;;;;;5.72;2.70;;;;;;;2.66;57.40;94676.31;5016658;28;20075;-77
2022/02/09 08:41:04;;;;;;;1.90;1.73;;;;;;;2.66;57.57;94657.91;5023771;28;20037;-74
2022/02/09 08:43:30;;;;;;;3.88;2.38;;;;;;;2.61;57.35;94653.41;5014855;28;20934;-75
2022/02/09 08:45:55;;;;;;;3.85;1.88;;;;;;;2.80;56.81;94674.91;5024895;28;20432;-78
2022/02/09 08:48:21;;;;;;;2.05;1.88;;;;;;;2.78;56.89;94669.13;5010895;28;20098;-76
2022/02/09 08:50:50;;;;;;;4.85;2.72;;;;;;;2.95;56.79;94688.25;5021460;28;20401;-77
2022/02/09 08:53:17;;;;;;;5.13;2.28;;;;;;;3.04;56.76;94701.78;5015711;28;20020;-77
2022/02/09 08:55:42;;;;;;;3.78;1.95;;;;;;;3.09;56.49;94702.59;5023816;28;20033;-77
2022/02/09 08:58:08;;;;;;;1.98;1.88;;;;;;;3.23;56.27;94705.69;5028250;28;20068;-74
2022/02/09 09:00:37;;;;;;;3.20;2.42;;;;;;;3.22;56.12;94704.09;5013659;28;20432;-76
2022/02/09 09:05:43;;;;;;;2.17;1.98;;;;;;;3.23;56.36;94706.44;5023185;28;20060;-77
2022/02/09 09:08:25;;;;;;;4.25;2.47;;;;;;;2.87;56.37;94649.25;5020030;28;20056;-75
2022/02/09 09:11:56;;;;;;;2.97;2.30;;;;;;;3.32;56.29;94709.47;5021141;28;20178;-77
2022/02/09 10:02:51;;;;;;;4.13;1.92;;;;;;;4.84;53.29;94698.44;5016215;28;20362;-77
2022/02/09 10:05:40;;;;;;;2.47;2.20;;;;;;;4.96;53.02;94698.22;5025251;28;20033;-77
2022/02/09 10:33:58;;;;;;;4.60;2.22;;;;;;;5.20;51.46;94669.56;5011559;28;20528;-77
2022/02/09 10:36:24;;;;;;;2.00;1.70;;;;;;;5.12;52.09;94665.59;5016876;28;20037;-77
2022/02/09 10:39:03;;;;;;;3.45;1.83;;;;;;;5.19;52.07;94676.69;5023102;28;22274;-77
2022/02/09 10:41:35;;;;;;;2.25;1.77;;;;;;;5.22;52.44;94670.13;5024230;28;20482;-78
2022/02/09 10:44:03;;;;;;;4.40;2.15;;;;;;;5.38;52.32;94679.69;5023887;28;20026;-75
2022/02/09 10:46:29;;;;;;;2.25;2.05;;;;;;;5.34;51.88;94660.13;5011962;28;20528;-74
2022/02/09 10:48:58;;;;;;;1.83;1.58;;;;;;;5.43;52.29;94682.34;5022398;28;20046;-77
2022/02/09 10:51:39;;;;;;;5.20;2.15;;;;;;;5.47;51.98;94676.28;5007428;28;20464;-76
2022/02/09 10:54:17;;;;;;;2.33;2.13;;;;;;;5.42;51.78;94670.19;5016566;28;20034;-76
2022/02/09 10:56:51;;;;;;;9.02;2.65;;;;;;;4.36;51.79;94530.06;5024109;28;20445;-77
2022/02/09 10:59:21;;;;;;;4.80;3.15;;;;;;;5.39;51.77;94663.56;5011803;28;20033;-77
2022/02/09 11:01:46;;;;;;;4.30;2.60;;;;;;;5.53;51.72;94659.38;5024549;28;20042;-77
2022/02/09 11:04:13;;;;;;;3.45;2.55;;;;;;;5.40;51.30;94651.97;5023721;28;20469;-75
2022/02/09 11:06:41;;;;;;;3.05;2.35;;;;;;;5.52;51.21;94649.91;5027419;28;20041;-77
2022/02/09 11:09:12;;;;;;;3.90;2.58;;;;;;;5.52;51.04;94663.09;5018474;28;20045;-74
2022/02/09 11:11:40;;;;;;;3.05;2.00;;;;;;;5.61;50.88;94668.66;5017721;28;20492;-75
2022/02/09 11:14:10;;;;;;;3.72;2.70;;;;;;;5.45;51.51;94659.09;5022701;28;20425;-76
2022/02/09 11:16:36;;;;;;;5.93;3.70;;;;;;;5.26;51.13;94661.44;5021875;28;20045;-77
2022/02/09 11:19:03;;;;;;;7.20;3.58;;;;;;;5.28;51.44;94674.38;5038862;28;20036;-77
2022/02/09 11:21:32;;;;;;;9.77;3.47;;;;;;;5.50;51.33;94667.84;5023315;28;20081;-77
2022/02/09 11:24:01;;;;;;;5.55;3.35;;;;;;;5.60;51.30;94677.63;5017346;28;20492;-77
2022/02/09 11:27:00;;;;;;;7.30;3.42;;;;;;;5.68;51.04;94671.81;5021393;28;20691;-77
2022/02/09 11:34:52;;;;;;;3.85;2.67;;;;;;;5.78;50.83;94686.88;5019726;28;20119;-77
2022/02/09 11:37:26;;;;;;;3.00;2.00;;;;;;;5.89;50.39;94680.56;5025630;28;20045;-76
2022/02/09 11:39:54;;;;;;;4.97;2.67;;;;;;;5.71;51.01;94679.22;5020414;28;20033;-76
2022/02/09 11:42:24;;;;;;;5.30;2.38;;;;;;;5.40;51.04;94653.81;5024580;28;20064;-77
2022/02/09 11:45:13;;;;;;;2.55;1.90;;;;;;;5.41;51.40;94663.31;5020062;28;20037;-76
2022/02/09 11:47:59;;;;;;;3.15;2.40;;;;;;;5.45;51.69;94674.94;5021361;28;20041;-77
2022/02/09 11:56:41;;;;;;;3.13;2.70;;;;;;;5.36;51.89;94669.38;5021865;28;20048;-77
2022/02/09 12:01:24;;;;;;;2.53;2.33;;;;;;;5.35;51.82;94682.81;5022935;28;20033;-74
2022/02/09 12:10:06;;;;;;;2.58;2.00;;;;;;;5.44;51.86;94678.63;5020352;28;20059;-77
2022/02/09 12:12:18;;;;;;;5.88;2.47;;;;;;;5.38;52.08;94679.69;5020735;28;20420;-77
2022/02/09 12:20:30;;;;;;;3.03;2.42;;;;;;;5.33;52.34;94688.38;5025714;28;20033;-77
2022/02/09 12:25:49;;;;;;;3.63;2.10;;;;;;;5.37;51.94;94651.72;5017769;28;20044;-78
2022/02/09 12:28:37;;;;;;;3.97;2.33;;;;;;;5.57;51.90;94686.06;5018048;28;20111;-77
2022/02/09 12:31:14;;;;;;;2.97;2.50;;;;;;;5.56;51.77;94671.28;5027002;28;20072;-76
2022/02/09 12:33:43;;;;;;;5.47;3.03;;;;;;;5.74;51.14;94689.25;5021156;28;20580;-77
2022/02/09 12:36:13;;;;;;;2.50;2.30;;;;;;;5.52;51.41;94664.94;5023620;28;20044;-77
2022/02/09 12:38:39;;;;;;;3.58;2.75;;;;;;;5.68;51.57;94694.78;5030455;28;20033;-77
2022/02/09 12:41:11;;;;;;;4.22;2.58;;;;;;;5.76;51.30;94707.47;5026760;28;20032;-77
2022/02/09 12:43:58;;;;;;;3.50;2.30;;;;;;;5.72;51.22;94696.66;5019215;28;20069;-77
2022/02/09 12:46:26;;;;;;;3.53;2.47;;;;;;;5.71;51.56;94705.63;5027691;28;20138;-75
2022/02/09 12:48:52;;;;;;;3.70;3.05;;;;;;;5.63;51.45;94700.84;5023690;28;20091;-78
2022/02/09 12:51:25;;;;;;;5.55;3.78;;;;;;;5.57;51.82;94693.97;5017664;28;20696;-78
2022/02/09 12:53:51;;;;;;;4.88;3.70;;;;;;;5.52;51.81;94686.84;5017243;28;20049;-78
2022/02/09 12:56:27;;;;;;;5.75;3.75;;;;;;;5.46;52.14;94714.25;5024466;28;20347;-75
2022/02/09 12:59:15;;;;;;;5.75;3.28;;;;;;;5.15;52.98;94712.53;5021309;28;20396;-76
2022/02/09 13:01:52;;;;;;;3.72;2.85;;;;;;;4.96;53.59;94704.28;5020394;28;20045;-75
2022/02/09 13:04:34;;;;;;;9.05;4.03;;;;;;;4.91;54.02;94712.16;5023487;28;20122;-76
2022/02/09 13:07:03;;;;;;;4.47;3.47;;;;;;;4.70;54.52;94684.09;5016515;28;20071;-77
2022/02/09 13:09:28;;;;;;;4.80;3.20;;;;;;;4.88;54.41;94702.13;5018151;28;20045;-77
2022/02/09 13:11:54;;;;;;;11.40;6.72;;;;;;;5.01;53.95;94701.66;5022625;28;20087;-77
2022/02/09 13:14:37;;;;;;;6.93;3.60;;;;;;;5.11;53.61;94685.91;5018410;28;20044;-77
2022/02/09 13:20:28;;;;;;;6.70;4.38;;;;;;;5.38;53.18;94703.41;5023570;28;20580;-76
2022/02/09 14:52:58;;;;;;;6.95;4.85;;;;;;;3.93;62.76;94765.34;5019003;28;20967;-77
2022/02/09 14:55:44;;;;;;;9.82;5.97;;;;;;;3.90;62.29;94757.97;5022557;28;20517;-76
2022/02/09 14:58:12;;;;;;;9.07;6.22;;;;;;;3.93;62.38;94763.53;5027504;28;20036;-77
2022/02/09 15:03:51;;;;;;;11.18;8.07;;;;;;;4.34;61.33;94771.84;5020408;28;20098;-77
2022/02/09 15:24:21;;;;;;;8.65;6.05;;;;;;;3.97;60.77;94722.50;5017926;28;20048;-76
2022/02/09 15:26:49;;;;;;;7.93;6.20;;;;;;;3.98;61.19;94753.03;5026313;28;20045;-77
2022/02/09 15:29:16;;;;;;;6.75;4.97;;;;;;;4.04;61.18;94748.63;5027942;28;20033;-77
2022/02/09 15:34:18;;;;;;;6.70;5.03;;;;;;;4.00;60.86;94753.59;5024367;28;20129;-76
2022/02/09 15:39:13;;;;;;;10.40;6.80;;;;;;;4.13;60.26;94741.84;5023121;28;20327;-75
2022/02/09 15:41:58;;;;;;;6.78;5.70;;;;;;;3.82;59.82;94667.09;5020370;28;20061;-77
2022/02/09 16:09:13;;;;;;;8.80;5.70;;;;;;;3.57;59.51;94688.72;5004364;28;20518;-76
2022/02/09 16:22:37;;;;;;;4.47;4.07;;;;;;;3.84;60.02;94770.28;5017771;28;20135;-77
2022/02/09 16:33:38;;;;;;;8.90;5.72;;;;;;;3.64;60.06;94764.78;5014597;28;20068;-77
2022/02/09 16:46:33;;;;;;;9.27;6.50;;;;;;;3.97;60.22;94809.34;5015192;28;20195;-77
2022/02/09 16:51:27;;;;;;;5.97;4.53;;;;;;;3.72;60.58;94785.41;5013499;28;20521;-77
2022/02/09 17:21:06;;;;;;;10.88;6.03;;;;;;;3.59;60.63;94809.44;5019425;28;20040;-77
2022/02/09 17:23:32;;;;;;;5.13;4.57;;;;;;;3.58;60.87;94813.91;5012729;28;20844;-77
2022/02/09 17:25:57;;;;;;;8.80;4.90;;;;;;;3.71;61.12;94839.06;5004862;28;20657;-77
2022/02/09 17:28:22;;;;;;;4.28;3.90;;;;;;;3.69;60.97;94830.63;5012340;28;20518;-76
2022/02/09 17:58:06;;;;;;;5.97;4.15;;;;;;;3.61;60.86;94854.72;5021161;28;20136;-76
2022/02/09 18:00:21;;;;;;;6.97;4.45;;;;;;;3.66;60.74;94852.97;5012309;28;20115;-76
2022/02/09 18:02:49;;;;;;;6.13;4.15;;;;;;;3.70;60.89;94874.31;5019166;28;20037;-76
2022/02/09 18:07:58;;;;;;;7.47;4.45;;;;;;;3.54;61.08;94857.53;5014986;28;20043;-76
2022/02/09 18:29:31;;;;;;;10.35;5.88;;;;;;;3.76;60.88;94883.88;5021040;28;20102;-77
2022/02/09 18:42:55;;;;;;;5.55;4.10;;;;;;;3.67;59.89;94874.81;5024410;28;20450;-76
2022/02/09 19:02:32;;;;;;;6.28;4.60;;;;;;;3.40;59.81;94870.25;5025988;28;20626;-76
2022/02/09 19:05:05;;;;;;;11.27;5.93;;;;;;;3.53;59.95;94887.50;5020245;28;20497;-77
2022/02/09 19:07:54;;;;;;;11.02;5.93;;;;;;;3.48;60.19;94879.53;5021898;28;20060;-76
2022/02/09 19:31:45;;;;;;;9.95;5.40;;;;;;;3.70;58.54;94890.09;5020199;28;20149;-77
2022/02/09 19:45:56;;;;;;;8.85;4.53;;;;;;;3.63;57.98;94885.00;5022466;28;20047;-77
2022/02/09 19:48:00;;;;;;;8.57;4.32;;;;;;;3.78;58.05;94918.63;5011070;28;20460;-77
2022/02/09 19:50:50;;;;;;;9.73;6.07;;;;;;;3.62;58.11;94904.47;5019314;28;20368;-78
2022/02/09 19:55:53;;;;;;;7.32;4.55;;;;;;;3.64;58.21;94906.84;5015934;28;20045;-77
2022/02/09 19:58:21;;;;;;;18.52;8.18;;;;;;;3.69;58.26;94904.28;5015550;28;20033;-77
2022/02/09 20:00:47;;;;;;;12.07;6.20;;;;;;;3.31;58.61;94879.59;5007281;28;20390;-77
2022/02/09 20:03:13;;;;;;;9.93;6.72;;;;;;;3.28;58.86;94881.91;5014018;28;24489;-77
2022/02/09 20:05:38;;;;;;;9.25;5.68;;;;;;;3.48;58.64;94902.44;5016834;28;20049;-77
2022/02/09 20:08:05;;;;;;;11.55;5.35;;;;;;;3.62;58.73;94930.00;5017452;28;20123;-78
2022/02/09 20:10:31;;;;;;;14.70;5.35;;;;;;;3.63;58.67;94921.03;5020433;28;20037;-77
2022/02/09 20:12:56;;;;;;;9.35;7.30;;;;;;;3.72;58.10;94925.63;5018289;28;20037;-77
2022/02/09 20:15:22;;;;;;;6.85;5.38;;;;;;;3.75;58.10;94919.13;5019113;28;20318;-77
2022/02/09 20:17:48;;;;;;;8.75;5.32;;;;;;;3.76;58.14;94904.91;5020653;28;20048;-77
2022/02/09 20:20:22;;;;;;;6.10;4.25;;;;;;;4.06;57.39;94938.72;5023123;28;20048;-77
2022/02/09 20:22:49;;;;;;;6.00;4.60;;;;;;;3.95;57.48;94937.78;5015499;28;20055;-78
2022/02/09 20:25:17;;;;;;;6.05;4.60;;;;;;;3.92;57.77;94935.63;5020377;28;20059;-77
2022/02/09 20:27:43;;;;;;;6.82;4.30;;;;;;;3.93;57.79;94921.44;5019544;28;20037;-78
2022/02/09 20:30:11;;;;;;;5.40;4.20;;;;;;;4.07;57.43;94924.50;5027210;28;20028;-77
2022/02/09 20:32:43;;;;;;;6.53;5.10;;;;;;;4.42;56.92;94955.75;5020237;28;20380;-76
2022/02/09 20:35:11;;;;;;;8.63;5.68;;;;;;;4.50;56.19;94952.69;5020989;28;20041;-77
2022/02/09 20:37:42;;;;;;;8.10;5.43;;;;;;;4.49;55.97;94951.09;5018158;28;20074;-77
2022/02/09 20:40:21;;;;;;;5.95;4.70;;;;;;;4.33;56.06;94941.44;5012220;28;20430;-76
2022/02/09 20:42:54;;;;;;;5.25;3.63;;;;;;;4.43;56.00;94949.44;5016632;28;20026;-74
2022/02/09 20:45:31;;;;;;;5.78;3.92;;;;;;;4.16;56.61;94952.78;5016521;28;20611;-77
2022/02/09 20:48:06;;;;;;;8.02;4.75;;;;;;;4.01;56.84;94934.19;5017509;28;20060;-77
2022/02/09 20:50:34;;;;;;;5.35;3.95;;;;;;;3.97;57.08;94943.59;5019323;28;20708;-76
2022/02/09 20:53:00;;;;;;;6.05;4.15;;;;;;;3.89;57.01;94924.81;5013682;28;20049;-76
2022/02/09 20:55:27;;;;;;;5.82;4.00;;;;;;;3.79;57.28;94931.53;5014648;28;20393;-76
2022/02/09 20:57:53;;;;;;;4.82;3.38;;;;;;;3.97;57.32;94948.06;5018071;28;20587;-76
2022/02/09 21:00:38;;;;;;;8.00;4.95;;;;;;;4.08;57.40;94958.50;5011204;28;20017;-77
2022/02/09 21:08:33;;;;;;;6.22;4.63;;;;;;;4.45;56.29;94955.28;5008130;28;20084;-77
2022/02/09 22:20:23;;;;;;;24.13;12.82;;;;;;;5.37;52.44;94947.97;4974567;28;20503;-77
2022/02/09 22:28:14;;;;;;;9.05;5.32;;;;;;;5.38;52.29;94938.22;5006883;28;20045;-77
2022/02/09 22:50:12;;;;;;;6.45;4.25;;;;;;;5.10;53.34;94900.53;5020889;28;20044;-77
2022/02/09 22:55:24;;;;;;;12.27;7.88;;;;;;;5.16;53.27;94897.94;5024987;28;20501;-77
2022/02/09 22:58:03;;;;;;;8.07;5.93;;;;;;;5.16;53.36;94914.56;5028602;28;20029;-76
2022/02/09 23:00:46;;;;;;;6.88;5.32;;;;;;;5.16;53.48;94911.13;5017744;28;20391;-75
2022/02/09 23:03:18;;;;;;;7.50;5.85;;;;;;;5.09;53.51;94912.13;5027253;28;20556;-76
2022/02/09 23:05:56;;;;;;;9.40;5.50;;;;;;;5.02;53.53;94903.66;5018463;28;20114;-76
2022/02/09 23:16:29;;;;;;;12.15;7.20;;;;;;;4.84;55.21;94905.88;5023850;28;20528;-78
